sensor_id;sensor_type;location;lat;lon;timestamp;P1;durP1;ratioP1;P2;durP2;ratioP2
8048;SDS011;20935;42.660;23.342;2024-03-25T00:00:17;0.90;;;0.90;;
8048;SDS011;20935;42.660;23.342;2024-03-25T00:03:06;1.40;;;1.30;;
8048;SDS011;20935;42.660;23.342;2024-03-25T00:05:52;1.47;;;1.40;;
8048;SDS011;20935;42.660;23.342;2024-03-25T00:08:40;1.27;;;1.27;;
8048;SDS011;20935;42.660;23.342;2024-03-25T00:11:26;1.10;;;1.10;;
8048;SDS011;20935;42.660;23.342;2024-03-25T00:14:13;1.43;;;1.43;;
8048;SDS011;20935;42.660;23.342;2024-03-25T00:16:59;1.10;;;1.10;;
8048;SDS011;20935;42.660;23.342;2024-03-25T00:19:45;1.00;;;0.90;;
8048;SDS011;20935;42.660;23.342;2024-03-25T00:22:39;1.10;;;1.10;;
8048;SDS011;20935;42.660;23.342;2024-03-25T00:25:26;1.20;;;1.20;;
8048;SDS011;20935;42.660;23.342;2024-03-25T00:28:13;1.10;;;1.10;;
8048;SDS011;20935;42.660;23.342;2024-03-25T00:30:59;1.50;;;1.40;;
8048;SDS011;20935;42.660;23.342;2024-03-25T00:33:46;1.20;;;1.20;;
8048;SDS011;20935;42.660;23.342;2024-03-25T00:36:31;1.00;;;1.00;;
8048;SDS011;20935;42.660;23.342;2024-03-25T00:39:19;1.40;;;1.30;;
8048;SDS011;20935;42.660;23.342;2024-03-25T00:42:06;1.10;;;1.10;;
8048;SDS011;20935;42.660;23.342;2024-03-25T00:44:53;1.17;;;1.17;;
8048;SDS011;20935;42.660;23.342;2024-03-25T00:47:39;1.10;;;1.10;;
8048;SDS011;20935;42.660;23.342;2024-03-25T00:50:25;1.37;;;1.27;;
8048;SDS011;20935;42.660;23.342;2024-03-25T00:53:11;1.00;;;1.00;;
8048;SDS011;20935;42.660;23.342;2024-03-25T00:55:59;1.07;;;1.07;;
8048;SDS011;20935;42.660;23.342;2024-03-25T00:58:46;1.20;;;1.20;;
8048;SDS011;20935;42.660;23.342;2024-03-25T01:01:33;1.20;;;1.20;;
8048;SDS011;20935;42.660;23.342;2024-03-25T01:04:21;0.90;;;0.90;;
8048;SDS011;20935;42.660;23.342;2024-03-25T01:07:11;1.23;;;1.23;;
8048;SDS011;20935;42.660;23.342;2024-03-25T01:09:57;1.30;;;1.00;;
8048;SDS011;20935;42.660;23.342;2024-03-25T01:12:44;1.20;;;1.20;;
8048;SDS011;20935;42.660;23.342;2024-03-25T01:15:31;0.80;;;0.80;;
8048;SDS011;20935;42.660;23.342;2024-03-25T01:18:18;0.70;;;0.70;;
8048;SDS011;20935;42.660;23.342;2024-03-25T01:21:04;0.83;;;0.83;;
8048;SDS011;20935;42.660;23.342;2024-03-25T01:23:51;0.80;;;0.80;;
8048;SDS011;20935;42.660;23.342;2024-03-25T01:26:37;0.97;;;0.97;;
8048;SDS011;20935;42.660;23.342;2024-03-25T01:29:26;1.00;;;1.00;;
8048;SDS011;20935;42.660;23.342;2024-03-25T01:32:14;1.30;;;1.20;;
8048;SDS011;20935;42.660;23.342;2024-03-25T01:35:00;0.87;;;0.87;;
8048;SDS011;20935;42.660;23.342;2024-03-25T01:37:46;0.77;;;0.77;;
8048;SDS011;20935;42.660;23.342;2024-03-25T01:40:33;1.00;;;1.00;;
8048;SDS011;20935;42.660;23.342;2024-03-25T01:43:19;0.70;;;0.70;;
8048;SDS011;20935;42.660;23.342;2024-03-25T01:46:06;0.80;;;0.80;;
8048;SDS011;20935;42.660;23.342;2024-03-25T01:48:53;1.20;;;1.20;;
8048;SDS011;20935;42.660;23.342;2024-03-25T01:51:43;3.93;;;1.30;;
8048;SDS011;20935;42.660;23.342;2024-03-25T01:54:29;1.37;;;1.27;;
8048;SDS011;20935;42.660;23.342;2024-03-25T01:57:16;0.80;;;0.80;;
8048;SDS011;20935;42.660;23.342;2024-03-25T02:00:02;0.90;;;0.90;;
8048;SDS011;20935;42.660;23.342;2024-03-25T02:02:49;0.80;;;0.80;;
8048;SDS011;20935;42.660;23.342;2024-03-25T02:05:37;1.17;;;1.10;;
8048;SDS011;20935;42.660;23.342;2024-03-25T02:08:27;0.90;;;0.90;;
8048;SDS011;20935;42.660;23.342;2024-03-25T02:11:13;1.13;;;1.10;;
8048;SDS011;20935;42.660;23.342;2024-03-25T02:14:00;1.20;;;1.20;;
8048;SDS011;20935;42.660;23.342;2024-03-25T02:16:46;1.03;;;1.03;;
8048;SDS011;20935;42.660;23.342;2024-03-25T02:19:33;0.87;;;0.87;;
8048;SDS011;20935;42.660;23.342;2024-03-25T02:22:20;1.07;;;1.07;;
8048;SDS011;20935;42.660;23.342;2024-03-25T02:25:08;1.10;;;1.10;;
8048;SDS011;20935;42.660;23.342;2024-03-25T02:27:55;1.10;;;1.10;;
8048;SDS011;20935;42.660;23.342;2024-03-25T02:30:42;0.90;;;0.90;;
8048;SDS011;20935;42.660;23.342;2024-03-25T02:33:28;1.03;;;1.03;;
8048;SDS011;20935;42.660;23.342;2024-03-25T02:36:15;1.27;;;1.27;;
8048;SDS011;20935;42.660;23.342;2024-03-25T02:39:00;1.03;;;1.03;;
8048;SDS011;20935;42.660;23.342;2024-03-25T02:41:49;1.20;;;1.20;;
8048;SDS011;20935;42.660;23.342;2024-03-25T02:44:37;0.80;;;0.80;;
8048;SDS011;20935;42.660;23.342;2024-03-25T02:47:24;1.33;;;1.30;;
8048;SDS011;20935;42.660;23.342;2024-03-25T02:50:10;1.00;;;1.00;;
8048;SDS011;20935;42.660;23.342;2024-03-25T02:52:56;1.03;;;1.03;;
8048;SDS011;20935;42.660;23.342;2024-03-25T02:55:42;1.10;;;1.10;;
8048;SDS011;20935;42.660;23.342;2024-03-25T02:58:29;1.60;;;1.57;;
8048;SDS011;20935;42.660;23.342;2024-03-25T03:01:16;0.93;;;0.93;;
8048;SDS011;20935;42.660;23.342;2024-03-25T03:04:03;1.20;;;1.20;;
8048;SDS011;20935;42.660;23.342;2024-03-25T03:06:49;1.10;;;1.10;;
8048;SDS011;20935;42.660;23.342;2024-03-25T03:09:37;1.67;;;1.57;;
8048;SDS011;20935;42.660;23.342;2024-03-25T03:12:23;1.50;;;1.40;;
8048;SDS011;20935;42.660;23.342;2024-03-25T03:15:10;1.10;;;1.10;;
8048;SDS011;20935;42.660;23.342;2024-03-25T03:17:57;1.17;;;1.17;;
8048;SDS011;20935;42.660;23.342;2024-03-25T03:20:44;1.27;;;1.27;;
8048;SDS011;20935;42.660;23.342;2024-03-25T03:23:30;1.30;;;1.30;;
8048;SDS011;20935;42.660;23.342;2024-03-25T03:26:17;1.10;;;1.10;;
8048;SDS011;20935;42.660;23.342;2024-03-25T03:29:03;1.47;;;1.40;;
8048;SDS011;20935;42.660;23.342;2024-03-25T03:31:50;1.10;;;1.10;;
8048;SDS011;20935;42.660;23.342;2024-03-25T03:34:37;1.37;;;1.20;;
8048;SDS011;20935;42.660;23.342;2024-03-25T03:37:23;1.37;;;1.30;;
8048;SDS011;20935;42.660;23.342;2024-03-25T03:40:12;1.60;;;1.50;;
8048;SDS011;20935;42.660;23.342;2024-03-25T03:42:59;1.60;;;1.50;;
8048;SDS011;20935;42.660;23.342;2024-03-25T03:45:45;1.60;;;1.50;;
8048;SDS011;20935;42.660;23.342;2024-03-25T03:48:32;2.43;;;2.23;;
8048;SDS011;20935;42.660;23.342;2024-03-25T03:51:19;1.80;;;1.70;;
8048;SDS011;20935;42.660;23.342;2024-03-25T03:54:06;2.30;;;2.10;;
8048;SDS011;20935;42.660;23.342;2024-03-25T03:56:51;2.47;;;2.27;;
8048;SDS011;20935;42.660;23.342;2024-03-25T03:59:38;3.77;;;2.63;;
8048;SDS011;20935;42.660;23.342;2024-03-25T04:02:24;1.90;;;1.80;;
8048;SDS011;20935;42.660;23.342;2024-03-25T04:05:11;4.50;;;2.60;;
8048;SDS011;20935;42.660;23.342;2024-03-25T04:07:58;2.33;;;2.03;;
8048;SDS011;20935;42.660;23.342;2024-03-25T04:10:45;10.50;;;4.37;;
8048;SDS011;20935;42.660;23.342;2024-03-25T04:13:34;3.17;;;2.50;;
8048;SDS011;20935;42.660;23.342;2024-03-25T04:16:21;3.87;;;2.37;;
8048;SDS011;20935;42.660;23.342;2024-03-25T04:19:08;3.03;;;2.73;;
8048;SDS011;20935;42.660;23.342;2024-03-25T04:21:55;3.90;;;2.73;;
8048;SDS011;20935;42.660;23.342;2024-03-25T04:24:43;4.27;;;3.23;;
8048;SDS011;20935;42.660;23.342;2024-03-25T04:27:30;2.77;;;2.53;;
8048;SDS011;20935;42.660;23.342;2024-03-25T04:30:16;4.13;;;3.73;;
8048;SDS011;20935;42.660;23.342;2024-03-25T04:33:03;7.63;;;4.17;;
8048;SDS011;20935;42.660;23.342;2024-03-25T04:35:49;6.80;;;4.13;;
8048;SDS011;20935;42.660;23.342;2024-03-25T04:38:35;3.20;;;2.87;;
8048;SDS011;20935;42.660;23.342;2024-03-25T04:41:22;5.57;;;4.23;;
8048;SDS011;20935;42.660;23.342;2024-03-25T04:44:08;5.30;;;4.13;;
8048;SDS011;20935;42.660;23.342;2024-03-25T04:46:54;8.60;;;5.87;;
8048;SDS011;20935;42.660;23.342;2024-03-25T04:49:43;4.77;;;3.33;;
8048;SDS011;20935;42.660;23.342;2024-03-25T04:52:29;12.57;;;6.80;;
8048;SDS011;20935;42.660;23.342;2024-03-25T04:55:15;11.70;;;6.97;;
8048;SDS011;20935;42.660;23.342;2024-03-25T04:58:02;6.13;;;5.03;;
8048;SDS011;20935;42.660;23.342;2024-03-25T05:00:48;10.17;;;6.80;;
8048;SDS011;20935;42.660;23.342;2024-03-25T05:03:34;9.50;;;5.33;;
8048;SDS011;20935;42.660;23.342;2024-03-25T05:06:19;9.23;;;5.53;;
8048;SDS011;20935;42.660;23.342;2024-03-25T05:09:05;13.33;;;7.23;;
8048;SDS011;20935;42.660;23.342;2024-03-25T05:11:51;7.13;;;5.60;;
8048;SDS011;20935;42.660;23.342;2024-03-25T05:14:38;10.80;;;5.10;;
8048;SDS011;20935;42.660;23.342;2024-03-25T05:17:24;9.47;;;6.57;;
8048;SDS011;20935;42.660;23.342;2024-03-25T05:20:10;7.37;;;6.33;;
8048;SDS011;20935;42.660;23.342;2024-03-25T05:22:56;7.67;;;5.67;;
8048;SDS011;20935;42.660;23.342;2024-03-25T05:25:45;7.80;;;6.50;;
8048;SDS011;20935;42.660;23.342;2024-03-25T05:28:31;7.43;;;6.63;;
8048;SDS011;20935;42.660;23.342;2024-03-25T05:31:18;8.50;;;6.27;;
8048;SDS011;20935;42.660;23.342;2024-03-25T05:34:04;8.00;;;6.87;;
8048;SDS011;20935;42.660;23.342;2024-03-25T05:36:49;9.73;;;6.57;;
8048;SDS011;20935;42.660;23.342;2024-03-25T05:39:35;7.57;;;6.60;;
8048;SDS011;20935;42.660;23.342;2024-03-25T05:42:21;8.20;;;5.87;;
8048;SDS011;20935;42.660;23.342;2024-03-25T05:45:07;8.67;;;6.77;;
8048;SDS011;20935;42.660;23.342;2024-03-25T05:47:54;8.57;;;7.10;;
8048;SDS011;20935;42.660;23.342;2024-03-25T05:50:40;9.47;;;7.43;;
8048;SDS011;20935;42.660;23.342;2024-03-25T05:53:26;6.57;;;5.47;;
8048;SDS011;20935;42.660;23.342;2024-03-25T05:56:12;8.63;;;6.63;;
8048;SDS011;20935;42.660;23.342;2024-03-25T05:58:58;8.70;;;6.80;;
8048;SDS011;20935;42.660;23.342;2024-03-25T06:01:44;9.07;;;7.03;;
8048;SDS011;20935;42.660;23.342;2024-03-25T06:04:31;7.83;;;5.63;;
8048;SDS011;20935;42.660;23.342;2024-03-25T06:07:17;8.57;;;6.33;;
8048;SDS011;20935;42.660;23.342;2024-03-25T06:10:03;9.27;;;7.33;;
8048;SDS011;20935;42.660;23.342;2024-03-25T06:12:49;5.80;;;5.20;;
8048;SDS011;20935;42.660;23.342;2024-03-25T06:15:35;9.60;;;6.87;;
8048;SDS011;20935;42.660;23.342;2024-03-25T06:18:23;9.50;;;7.00;;
8048;SDS011;20935;42.660;23.342;2024-03-25T06:21:10;7.00;;;5.67;;
8048;SDS011;20935;42.660;23.342;2024-03-25T06:23:56;7.77;;;6.90;;
8048;SDS011;20935;42.660;23.342;2024-03-25T06:26:42;9.77;;;7.73;;
8048;SDS011;20935;42.660;23.342;2024-03-25T06:29:28;8.47;;;7.30;;
8048;SDS011;20935;42.660;23.342;2024-03-25T06:32:14;9.80;;;7.50;;
8048;SDS011;20935;42.660;23.342;2024-03-25T06:35:21;8.53;;;6.40;;
8048;SDS011;20935;42.660;23.342;2024-03-25T06:38:08;7.57;;;6.07;;
8048;SDS011;20935;42.660;23.342;2024-03-25T06:40:54;8.03;;;7.17;;
8048;SDS011;20935;42.660;23.342;2024-03-25T06:43:40;8.73;;;7.30;;
8048;SDS011;20935;42.660;23.342;2024-03-25T06:46:26;8.33;;;7.43;;
8048;SDS011;20935;42.660;23.342;2024-03-25T06:49:12;8.10;;;6.03;;
8048;SDS011;20935;42.660;23.342;2024-03-25T06:51:58;9.47;;;6.93;;
8048;SDS011;20935;42.660;23.342;2024-03-25T06:54:48;8.43;;;7.47;;
8048;SDS011;20935;42.660;23.342;2024-03-25T06:57:34;9.23;;;6.97;;
8048;SDS011;20935;42.660;23.342;2024-03-25T07:00:20;9.93;;;8.40;;
8048;SDS011;20935;42.660;23.342;2024-03-25T07:03:06;6.83;;;6.03;;
8048;SDS011;20935;42.660;23.342;2024-03-25T07:05:52;9.47;;;8.47;;
8048;SDS011;20935;42.660;23.342;2024-03-25T07:08:38;8.47;;;7.33;;
8048;SDS011;20935;42.660;23.342;2024-03-25T07:11:25;9.77;;;7.77;;
8048;SDS011;20935;42.660;23.342;2024-03-25T07:14:11;8.60;;;7.33;;
8048;SDS011;20935;42.660;23.342;2024-03-25T07:16:58;10.17;;;6.73;;
8048;SDS011;20935;42.660;23.342;2024-03-25T07:19:43;8.63;;;7.50;;
8048;SDS011;20935;42.660;23.342;2024-03-25T07:22:29;10.47;;;6.10;;
8048;SDS011;20935;42.660;23.342;2024-03-25T07:25:15;8.97;;;5.93;;
8048;SDS011;20935;42.660;23.342;2024-03-25T07:28:02;12.67;;;7.50;;
8048;SDS011;20935;42.660;23.342;2024-03-25T07:30:49;8.97;;;6.87;;
8048;SDS011;20935;42.660;23.342;2024-03-25T07:33:35;7.87;;;7.03;;
8048;SDS011;20935;42.660;23.342;2024-03-25T07:36:21;8.70;;;7.73;;
8048;SDS011;20935;42.660;23.342;2024-03-25T07:39:07;8.17;;;7.37;;
8048;SDS011;20935;42.660;23.342;2024-03-25T07:41:52;6.27;;;5.63;;
8048;SDS011;20935;42.660;23.342;2024-03-25T07:44:40;8.10;;;7.30;;
8048;SDS011;20935;42.660;23.342;2024-03-25T07:47:25;9.97;;;8.40;;
8048;SDS011;20935;42.660;23.342;2024-03-25T07:50:11;7.40;;;6.70;;
8048;SDS011;20935;42.660;23.342;2024-03-25T07:52:57;9.23;;;6.27;;
8048;SDS011;20935;42.660;23.342;2024-03-25T07:55:43;8.27;;;7.13;;
8048;SDS011;20935;42.660;23.342;2024-03-25T07:58:29;8.37;;;6.43;;
8048;SDS011;20935;42.660;23.342;2024-03-25T08:01:16;6.13;;;5.53;;
8048;SDS011;20935;42.660;23.342;2024-03-25T08:04:02;7.10;;;6.40;;
8048;SDS011;20935;42.660;23.342;2024-03-25T08:06:48;7.87;;;6.80;;
8048;SDS011;20935;42.660;23.342;2024-03-25T08:09:33;8.47;;;7.20;;
8048;SDS011;20935;42.660;23.342;2024-03-25T08:12:19;7.43;;;6.63;;
8048;SDS011;20935;42.660;23.342;2024-03-25T08:15:05;7.80;;;6.67;;
8048;SDS011;20935;42.660;23.342;2024-03-25T08:17:52;5.87;;;5.27;;
8048;SDS011;20935;42.660;23.342;2024-03-25T08:20:38;7.67;;;6.97;;
8048;SDS011;20935;42.660;23.342;2024-03-25T08:23:24;7.50;;;6.47;;
8048;SDS011;20935;42.660;23.342;2024-03-25T08:26:10;6.40;;;4.50;;
8048;SDS011;20935;42.660;23.342;2024-03-25T08:28:56;7.07;;;6.33;;
8048;SDS011;20935;42.660;23.342;2024-03-25T08:31:42;6.90;;;6.20;;
8048;SDS011;20935;42.660;23.342;2024-03-25T08:34:29;9.13;;;6.37;;
8048;SDS011;20935;42.660;23.342;2024-03-25T08:37:15;7.50;;;6.80;;
8048;SDS011;20935;42.660;23.342;2024-03-25T08:40:01;7.80;;;6.57;;
8048;SDS011;20935;42.660;23.342;2024-03-25T08:42:47;7.13;;;5.63;;
8048;SDS011;20935;42.660;23.342;2024-03-25T08:45:32;6.70;;;6.03;;
8048;SDS011;20935;42.660;23.342;2024-03-25T08:48:18;5.30;;;4.77;;
8048;SDS011;20935;42.660;23.342;2024-03-25T08:51:05;7.47;;;6.57;;
8048;SDS011;20935;42.660;23.342;2024-03-25T08:53:51;8.57;;;5.80;;
8048;SDS011;20935;42.660;23.342;2024-03-25T08:56:37;6.97;;;6.13;;
8048;SDS011;20935;42.660;23.342;2024-03-25T08:59:23;6.50;;;5.67;;
8048;SDS011;20935;42.660;23.342;2024-03-25T09:02:09;6.50;;;5.90;;
8048;SDS011;20935;42.660;23.342;2024-03-25T09:04:55;6.27;;;4.60;;
8048;SDS011;20935;42.660;23.342;2024-03-25T09:07:42;5.83;;;5.23;;
8048;SDS011;20935;42.660;23.342;2024-03-25T09:10:28;6.90;;;5.97;;
8048;SDS011;20935;42.660;23.342;2024-03-25T09:13:32;7.20;;;6.50;;
8048;SDS011;20935;42.660;23.342;2024-03-25T09:16:18;9.07;;;5.67;;
8048;SDS011;20935;42.660;23.342;2024-03-25T09:19:04;7.87;;;7.07;;
8048;SDS011;20935;42.660;23.342;2024-03-25T09:21:50;8.10;;;6.57;;
8048;SDS011;20935;42.660;23.342;2024-03-25T09:24:37;8.13;;;7.33;;
8048;SDS011;20935;42.660;23.342;2024-03-25T09:27:23;7.33;;;6.63;;
8048;SDS011;20935;42.660;23.342;2024-03-25T09:30:09;6.43;;;5.83;;
8048;SDS011;20935;42.660;23.342;2024-03-25T09:32:55;7.17;;;6.27;;
8048;SDS011;20935;42.660;23.342;2024-03-25T09:35:41;7.10;;;6.33;;
8048;SDS011;20935;42.660;23.342;2024-03-25T09:38:27;7.23;;;5.80;;
8048;SDS011;20935;42.660;23.342;2024-03-25T09:41:14;6.57;;;5.97;;
8048;SDS011;20935;42.660;23.342;2024-03-25T09:44:00;7.77;;;5.97;;
8048;SDS011;20935;42.660;23.342;2024-03-25T09:46:46;6.13;;;5.63;;
8048;SDS011;20935;42.660;23.342;2024-03-25T09:49:32;7.63;;;6.80;;
8048;SDS011;20935;42.660;23.342;2024-03-25T09:52:18;5.60;;;5.10;;
8048;SDS011;20935;42.660;23.342;2024-03-25T09:55:04;6.20;;;5.60;;
8048;SDS011;20935;42.660;23.342;2024-03-25T09:57:52;6.33;;;5.73;;
8048;SDS011;20935;42.660;23.342;2024-03-25T10:00:47;5.33;;;4.83;;
8048;SDS011;20935;42.660;23.342;2024-03-25T10:03:31;5.87;;;5.37;;
8048;SDS011;20935;42.660;23.342;2024-03-25T10:06:18;5.97;;;5.47;;
8048;SDS011;20935;42.660;23.342;2024-03-25T10:09:04;5.83;;;4.97;;
8048;SDS011;20935;42.660;23.342;2024-03-25T10:11:49;5.40;;;4.90;;
8048;SDS011;20935;42.660;23.342;2024-03-25T10:14:41;6.30;;;5.70;;
8048;SDS011;20935;42.660;23.342;2024-03-25T10:17:26;4.87;;;4.47;;
8048;SDS011;20935;42.660;23.342;2024-03-25T10:20:13;4.93;;;4.53;;
8048;SDS011;20935;42.660;23.342;2024-03-25T10:22:57;4.70;;;4.30;;
8048;SDS011;20935;42.660;23.342;2024-03-25T10:25:42;5.13;;;4.73;;
8048;SDS011;20935;42.660;23.342;2024-03-25T10:28:26;5.83;;;5.30;;
8048;SDS011;20935;42.660;23.342;2024-03-25T10:31:11;5.93;;;5.43;;
8048;SDS011;20935;42.660;23.342;2024-03-25T10:33:55;4.70;;;4.30;;
8048;SDS011;20935;42.660;23.342;2024-03-25T10:36:39;5.17;;;4.67;;
8048;SDS011;20935;42.660;23.342;2024-03-25T10:39:27;4.17;;;3.77;;
8048;SDS011;20935;42.660;23.342;2024-03-25T10:42:17;4.53;;;4.00;;
8048;SDS011;20935;42.660;23.342;2024-03-25T10:45:11;5.07;;;3.50;;
8048;SDS011;20935;42.660;23.342;2024-03-25T10:47:58;4.70;;;4.10;;
8048;SDS011;20935;42.660;23.342;2024-03-25T10:50:43;4.37;;;3.67;;
8048;SDS011;20935;42.660;23.342;2024-03-25T10:53:28;4.30;;;4.00;;
8048;SDS011;20935;42.660;23.342;2024-03-25T10:56:12;3.90;;;3.60;;
8048;SDS011;20935;42.660;23.342;2024-03-25T10:58:57;3.80;;;3.50;;
8048;SDS011;20935;42.660;23.342;2024-03-25T11:01:42;4.97;;;4.10;;
8048;SDS011;20935;42.660;23.342;2024-03-25T11:04:28;3.93;;;3.63;;
8048;SDS011;20935;42.660;23.342;2024-03-25T11:07:13;4.57;;;4.13;;
8048;SDS011;20935;42.660;23.342;2024-03-25T11:10:04;4.77;;;4.37;;
8048;SDS011;20935;42.660;23.342;2024-03-25T11:12:51;4.33;;;3.93;;
8048;SDS011;20935;42.660;23.342;2024-03-25T11:15:40;4.23;;;3.93;;
8048;SDS011;20935;42.660;23.342;2024-03-25T11:18:25;5.10;;;4.60;;
8048;SDS011;20935;42.660;23.342;2024-03-25T11:21:11;4.43;;;4.13;;
8048;SDS011;20935;42.660;23.342;2024-03-25T11:23:55;4.37;;;4.07;;
8048;SDS011;20935;42.660;23.342;2024-03-25T11:26:51;4.17;;;3.77;;
8048;SDS011;20935;42.660;23.342;2024-03-25T11:29:35;4.00;;;3.60;;
8048;SDS011;20935;42.660;23.342;2024-03-25T11:32:19;3.80;;;3.50;;
8048;SDS011;20935;42.660;23.342;2024-03-25T11:35:04;3.57;;;3.27;;
8048;SDS011;20935;42.660;23.342;2024-03-25T11:37:53;6.20;;;3.90;;
8048;SDS011;20935;42.660;23.342;2024-03-25T11:40:37;5.40;;;3.20;;
8048;SDS011;20935;42.660;23.342;2024-03-25T11:43:22;3.50;;;3.20;;
8048;SDS011;20935;42.660;23.342;2024-03-25T11:46:06;5.07;;;3.40;;
8048;SDS011;20935;42.660;23.342;2024-03-25T11:48:51;3.97;;;3.67;;
8048;SDS011;20935;42.660;23.342;2024-03-25T11:51:39;3.27;;;3.07;;
8048;SDS011;20935;42.660;23.342;2024-03-25T11:54:27;4.20;;;3.23;;
8048;SDS011;20935;42.660;23.342;2024-03-25T11:57:11;4.20;;;3.90;;
8048;SDS011;20935;42.660;23.342;2024-03-25T11:59:57;4.37;;;3.97;;
8048;SDS011;20935;42.660;23.342;2024-03-25T12:02:42;3.87;;;3.57;;
8048;SDS011;20935;42.660;23.342;2024-03-25T12:05:30;4.10;;;3.77;;
8048;SDS011;20935;42.660;23.342;2024-03-25T12:08:14;4.20;;;3.80;;
8048;SDS011;20935;42.660;23.342;2024-03-25T12:11:00;3.63;;;3.33;;
8048;SDS011;20935;42.660;23.342;2024-03-25T12:14:03;3.67;;;3.37;;
8048;SDS011;20935;42.660;23.342;2024-03-25T12:16:47;3.97;;;3.67;;
8048;SDS011;20935;42.660;23.342;2024-03-25T12:19:32;4.83;;;3.50;;
8048;SDS011;20935;42.660;23.342;2024-03-25T12:22:17;3.37;;;3.07;;
8048;SDS011;20935;42.660;23.342;2024-03-25T12:25:02;3.57;;;3.30;;
8048;SDS011;20935;42.660;23.342;2024-03-25T12:27:47;2.87;;;2.67;;
8048;SDS011;20935;42.660;23.342;2024-03-25T12:30:32;3.37;;;3.07;;
8048;SDS011;20935;42.660;23.342;2024-03-25T12:33:16;4.23;;;3.73;;
8048;SDS011;20935;42.660;23.342;2024-03-25T12:36:05;3.50;;;3.20;;
8048;SDS011;20935;42.660;23.342;2024-03-25T12:38:53;4.07;;;2.77;;
8048;SDS011;20935;42.660;23.342;2024-03-25T12:41:38;2.97;;;2.77;;
8048;SDS011;20935;42.660;23.342;2024-03-25T12:44:26;3.47;;;3.17;;
8048;SDS011;20935;42.660;23.342;2024-03-25T12:47:12;4.20;;;3.40;;
8048;SDS011;20935;42.660;23.342;2024-03-25T12:50:00;4.50;;;4.00;;
8048;SDS011;20935;42.660;23.342;2024-03-25T12:52:44;3.57;;;3.27;;
8048;SDS011;20935;42.660;23.342;2024-03-25T12:55:29;2.97;;;2.70;;
8048;SDS011;20935;42.660;23.342;2024-03-25T12:58:16;3.73;;;3.37;;
8048;SDS011;20935;42.660;23.342;2024-03-25T13:01:03;3.80;;;3.50;;
8048;SDS011;20935;42.660;23.342;2024-03-25T13:03:50;5.43;;;3.33;;
8048;SDS011;20935;42.660;23.342;2024-03-25T13:06:36;3.87;;;3.57;;
8048;SDS011;20935;42.660;23.342;2024-03-25T13:09:21;3.87;;;3.60;;
8048;SDS011;20935;42.660;23.342;2024-03-25T13:12:07;3.20;;;2.90;;
8048;SDS011;20935;42.660;23.342;2024-03-25T13:14:53;3.60;;;3.30;;
8048;SDS011;20935;42.660;23.342;2024-03-25T13:17:40;3.87;;;3.57;;
8048;SDS011;20935;42.660;23.342;2024-03-25T13:20:26;3.63;;;3.33;;
8048;SDS011;20935;42.660;23.342;2024-03-25T13:23:12;3.97;;;3.10;;
8048;SDS011;20935;42.660;23.342;2024-03-25T13:26:01;3.20;;;2.90;;
8048;SDS011;20935;42.660;23.342;2024-03-25T13:28:47;4.67;;;3.27;;
8048;SDS011;20935;42.660;23.342;2024-03-25T13:31:33;3.20;;;3.00;;
8048;SDS011;20935;42.660;23.342;2024-03-25T13:34:20;3.87;;;3.20;;
8048;SDS011;20935;42.660;23.342;2024-03-25T13:37:06;3.57;;;3.03;;
8048;SDS011;20935;42.660;23.342;2024-03-25T13:39:52;2.53;;;2.33;;
8048;SDS011;20935;42.660;23.342;2024-03-25T13:42:38;2.87;;;2.67;;
8048;SDS011;20935;42.660;23.342;2024-03-25T13:45:24;3.17;;;2.77;;
8048;SDS011;20935;42.660;23.342;2024-03-25T13:48:10;2.97;;;2.77;;
8048;SDS011;20935;42.660;23.342;2024-03-25T13:50:57;3.33;;;3.03;;
8048;SDS011;20935;42.660;23.342;2024-03-25T13:53:43;3.73;;;3.33;;
8048;SDS011;20935;42.660;23.342;2024-03-25T13:56:29;2.60;;;2.40;;
8048;SDS011;20935;42.660;23.342;2024-03-25T13:59:15;3.70;;;2.83;;
8048;SDS011;20935;42.660;23.342;2024-03-25T14:02:01;2.57;;;2.43;;
8048;SDS011;20935;42.660;23.342;2024-03-25T14:04:47;4.67;;;2.90;;
8048;SDS011;20935;42.660;23.342;2024-03-25T14:07:34;3.90;;;2.90;;
8048;SDS011;20935;42.660;23.342;2024-03-25T14:10:21;2.60;;;2.40;;
8048;SDS011;20935;42.660;23.342;2024-03-25T14:13:07;2.47;;;2.20;;
8048;SDS011;20935;42.660;23.342;2024-03-25T14:15:52;3.07;;;2.00;;
8048;SDS011;20935;42.660;23.342;2024-03-25T14:18:38;2.90;;;2.70;;
8048;SDS011;20935;42.660;23.342;2024-03-25T14:21:24;2.47;;;2.10;;
8048;SDS011;20935;42.660;23.342;2024-03-25T14:24:12;2.73;;;1.87;;
8048;SDS011;20935;42.660;23.342;2024-03-25T14:26:58;4.07;;;2.10;;
8048;SDS011;20935;42.660;23.342;2024-03-25T14:29:43;2.00;;;1.90;;
8048;SDS011;20935;42.660;23.342;2024-03-25T14:32:29;3.87;;;2.23;;
8048;SDS011;20935;42.660;23.342;2024-03-25T14:35:15;3.57;;;2.40;;
8048;SDS011;20935;42.660;23.342;2024-03-25T14:38:01;3.47;;;2.27;;
8048;SDS011;20935;42.660;23.342;2024-03-25T14:40:48;2.23;;;2.10;;
8048;SDS011;20935;42.660;23.342;2024-03-25T14:43:37;2.37;;;2.20;;
8048;SDS011;20935;42.660;23.342;2024-03-25T14:46:22;2.40;;;2.20;;
8048;SDS011;20935;42.660;23.342;2024-03-25T14:49:08;2.87;;;2.63;;
8048;SDS011;20935;42.660;23.342;2024-03-25T14:51:54;2.60;;;2.40;;
8048;SDS011;20935;42.660;23.342;2024-03-25T14:54:40;3.40;;;2.80;;
8048;SDS011;20935;42.660;23.342;2024-03-25T14:57:31;2.80;;;2.60;;
8048;SDS011;20935;42.660;23.342;2024-03-25T15:00:17;3.00;;;2.80;;
8048;SDS011;20935;42.660;23.342;2024-03-25T15:03:03;3.30;;;3.07;;
8048;SDS011;20935;42.660;23.342;2024-03-25T15:05:49;2.57;;;2.37;;
8048;SDS011;20935;42.660;23.342;2024-03-25T15:08:35;3.37;;;3.07;;
8048;SDS011;20935;42.660;23.342;2024-03-25T15:11:21;2.53;;;2.33;;
8048;SDS011;20935;42.660;23.342;2024-03-25T15:14:08;2.57;;;2.37;;
8048;SDS011;20935;42.660;23.342;2024-03-25T15:16:54;3.20;;;2.40;;
8048;SDS011;20935;42.660;23.342;2024-03-25T15:19:43;2.87;;;2.67;;
8048;SDS011;20935;42.660;23.342;2024-03-25T15:22:29;2.90;;;2.70;;
8048;SDS011;20935;42.660;23.342;2024-03-25T15:25:15;3.93;;;3.23;;
8048;SDS011;20935;42.660;23.342;2024-03-25T15:28:01;2.83;;;2.47;;
8048;SDS011;20935;42.660;23.342;2024-03-25T15:30:51;3.30;;;3.03;;
8048;SDS011;20935;42.660;23.342;2024-03-25T15:33:37;3.50;;;3.20;;
8048;SDS011;20935;42.660;23.342;2024-03-25T15:36:23;5.77;;;3.33;;
8048;SDS011;20935;42.660;23.342;2024-03-25T15:39:09;3.80;;;3.10;;
8048;SDS011;20935;42.660;23.342;2024-03-25T15:41:55;2.87;;;2.67;;
8048;SDS011;20935;42.660;23.342;2024-03-25T15:44:40;3.10;;;2.90;;
8048;SDS011;20935;42.660;23.342;2024-03-25T15:47:28;3.00;;;2.80;;
8048;SDS011;20935;42.660;23.342;2024-03-25T15:50:14;2.93;;;2.53;;
8048;SDS011;20935;42.660;23.342;2024-03-25T15:52:59;2.57;;;2.37;;
8048;SDS011;20935;42.660;23.342;2024-03-25T15:55:45;2.80;;;2.60;;
8048;SDS011;20935;42.660;23.342;2024-03-25T15:58:31;2.67;;;2.47;;
8048;SDS011;20935;42.660;23.342;2024-03-25T16:01:19;2.63;;;2.43;;
8048;SDS011;20935;42.660;23.342;2024-03-25T16:04:07;2.90;;;2.70;;
8048;SDS011;20935;42.660;23.342;2024-03-25T16:06:56;2.87;;;2.67;;
8048;SDS011;20935;42.660;23.342;2024-03-25T16:09:45;3.00;;;2.80;;
8048;SDS011;20935;42.660;23.342;2024-03-25T16:12:31;4.17;;;2.83;;
8048;SDS011;20935;42.660;23.342;2024-03-25T16:15:17;3.47;;;2.70;;
8048;SDS011;20935;42.660;23.342;2024-03-25T16:18:03;3.17;;;2.87;;
8048;SDS011;20935;42.660;23.342;2024-03-25T16:20:50;3.20;;;2.90;;
8048;SDS011;20935;42.660;23.342;2024-03-25T16:23:40;3.67;;;2.60;;
8048;SDS011;20935;42.660;23.342;2024-03-25T16:26:25;3.03;;;2.23;;
8048;SDS011;20935;42.660;23.342;2024-03-25T16:29:11;3.60;;;2.80;;
8048;SDS011;20935;42.660;23.342;2024-03-25T16:31:57;2.67;;;2.43;;
8048;SDS011;20935;42.660;23.342;2024-03-25T16:34:46;2.77;;;2.57;;
8048;SDS011;20935;42.660;23.342;2024-03-25T16:37:37;2.60;;;2.40;;
8048;SDS011;20935;42.660;23.342;2024-03-25T16:40:23;2.83;;;2.53;;
8048;SDS011;20935;42.660;23.342;2024-03-25T16:43:10;3.17;;;2.40;;